sensor_id;sensor_type;location;lat;lon;timestamp;P1;durP1;ratioP1;P2;durP2;ratioP2
48006;SDS011;33771;48.180;11.400;2023-07-09T00:02:19;13.02;;;5.80;;
48006;SDS011;33771;48.180;11.400;2023-07-09T00:04:45;10.73;;;5.55;;
48006;SDS011;33771;48.180;11.400;2023-07-09T00:07:13;11.55;;;6.20;;
48006;SDS011;33771;48.180;11.400;2023-07-09T00:09:43;10.02;;;6.13;;
48006;SDS011;33771;48.180;11.400;2023-07-09T00:12:11;9.30;;;5.90;;
48006;SDS011;33771;48.180;11.400;2023-07-09T00:14:39;9.52;;;5.60;;
48006;SDS011;33771;48.180;11.400;2023-07-09T00:17:07;12.13;;;5.97;;
48006;SDS011;33771;48.180;11.400;2023-07-09T00:19:36;12.82;;;5.53;;
48006;SDS011;33771;48.180;11.400;2023-07-09T00:22:01;11.82;;;6.10;;
48006;SDS011;33771;48.180;11.400;2023-07-09T00:24:38;11.15;;;5.93;;
48006;SDS011;33771;48.180;11.400;2023-07-09T00:27:04;10.85;;;6.07;;
48006;SDS011;33771;48.180;11.400;2023-07-09T00:29:33;9.60;;;5.18;;
48006;SDS011;33771;48.180;11.400;2023-07-09T00:31:58;11.73;;;6.05;;
48006;SDS011;33771;48.180;11.400;2023-07-09T00:34:24;8.73;;;5.32;;
48006;SDS011;33771;48.180;11.400;2023-07-09T00:36:49;10.13;;;5.72;;
48006;SDS011;33771;48.180;11.400;2023-07-09T00:39:16;10.85;;;5.95;;
48006;SDS011;33771;48.180;11.400;2023-07-09T00:41:43;10.38;;;6.57;;
48006;SDS011;33771;48.180;11.400;2023-07-09T00:44:29;10.57;;;6.10;;
48006;SDS011;33771;48.180;11.400;2023-07-09T00:49:31;11.32;;;6.03;;
48006;SDS011;33771;48.180;11.400;2023-07-09T00:52:00;9.70;;;6.05;;
48006;SDS011;33771;48.180;11.400;2023-07-09T00:54:30;11.00;;;5.95;;
48006;SDS011;33771;48.180;11.400;2023-07-09T00:57:03;10.80;;;5.30;;
48006;SDS011;33771;48.180;11.400;2023-07-09T00:59:32;11.85;;;6.18;;
48006;SDS011;33771;48.180;11.400;2023-07-09T01:01:58;13.45;;;5.93;;
48006;SDS011;33771;48.180;11.400;2023-07-09T01:04:25;8.73;;;5.60;;
48006;SDS011;33771;48.180;11.400;2023-07-09T01:06:52;10.85;;;6.15;;
48006;SDS011;33771;48.180;11.400;2023-07-09T01:09:20;8.68;;;5.60;;
48006;SDS011;33771;48.180;11.400;2023-07-09T01:11:47;8.25;;;5.35;;
48006;SDS011;33771;48.180;11.400;2023-07-09T01:14:13;9.55;;;5.43;;
48006;SDS011;33771;48.180;11.400;2023-07-09T01:16:44;11.18;;;5.72;;
48006;SDS011;33771;48.180;11.400;2023-07-09T01:19:14;9.48;;;5.80;;
48006;SDS011;33771;48.180;11.400;2023-07-09T01:21:41;9.75;;;5.32;;
48006;SDS011;33771;48.180;11.400;2023-07-09T01:24:14;11.27;;;5.90;;
48006;SDS011;33771;48.180;11.400;2023-07-09T01:27:00;12.90;;;6.22;;
48006;SDS011;33771;48.180;11.400;2023-07-09T01:29:29;13.88;;;6.72;;
48006;SDS011;33771;48.180;11.400;2023-07-09T01:31:56;11.25;;;5.90;;
48006;SDS011;33771;48.180;11.400;2023-07-09T01:34:22;11.73;;;5.85;;
48006;SDS011;33771;48.180;11.400;2023-07-09T01:36:49;11.88;;;6.22;;
48006;SDS011;33771;48.180;11.400;2023-07-09T01:39:16;11.10;;;6.07;;
48006;SDS011;33771;48.180;11.400;2023-07-09T01:41:42;13.40;;;5.65;;
48006;SDS011;33771;48.180;11.400;2023-07-09T01:44:07;9.55;;;5.03;;
48006;SDS011;33771;48.180;11.400;2023-07-09T01:46:33;9.90;;;5.88;;
48006;SDS011;33771;48.180;11.400;2023-07-09T01:48:59;11.07;;;5.95;;
48006;SDS011;33771;48.180;11.400;2023-07-09T01:51:25;10.15;;;5.68;;
48006;SDS011;33771;48.180;11.400;2023-07-09T01:53:53;9.20;;;5.80;;
48006;SDS011;33771;48.180;11.400;2023-07-09T01:56:18;10.55;;;5.53;;
48006;SDS011;33771;48.180;11.400;2023-07-09T01:58:44;10.45;;;5.75;;
48006;SDS011;33771;48.180;11.400;2023-07-09T02:01:10;10.07;;;5.63;;
48006;SDS011;33771;48.180;11.400;2023-07-09T02:03:36;12.15;;;6.00;;
48006;SDS011;33771;48.180;11.400;2023-07-09T02:06:01;11.63;;;6.13;;
48006;SDS011;33771;48.180;11.400;2023-07-09T02:08:34;10.23;;;5.80;;
48006;SDS011;33771;48.180;11.400;2023-07-09T02:11:00;11.38;;;6.18;;
48006;SDS011;33771;48.180;11.400;2023-07-09T02:13:26;12.15;;;5.60;;
48006;SDS011;33771;48.180;11.400;2023-07-09T02:15:51;19.27;;;6.88;;
48006;SDS011;33771;48.180;11.400;2023-07-09T02:18:17;11.52;;;5.70;;
48006;SDS011;33771;48.180;11.400;2023-07-09T02:20:42;10.32;;;5.85;;
48006;SDS011;33771;48.180;11.400;2023-07-09T02:23:11;11.25;;;6.03;;
48006;SDS011;33771;48.180;11.400;2023-07-09T02:25:36;12.82;;;5.78;;
48006;SDS011;33771;48.180;11.400;2023-07-09T02:28:02;12.77;;;6.10;;
48006;SDS011;33771;48.180;11.400;2023-07-09T02:30:28;12.00;;;6.82;;
48006;SDS011;33771;48.180;11.400;2023-07-09T02:32:54;11.43;;;5.95;;
48006;SDS011;33771;48.180;11.400;2023-07-09T02:35:20;8.48;;;5.60;;
48006;SDS011;33771;48.180;11.400;2023-07-09T02:37:46;14.43;;;6.25;;
48006;SDS011;33771;48.180;11.400;2023-07-09T02:40:12;9.55;;;6.05;;
48006;SDS011;33771;48.180;11.400;2023-07-09T02:42:38;8.98;;;5.57;;
48006;SDS011;33771;48.180;11.400;2023-07-09T02:45:04;10.43;;;5.82;;
48006;SDS011;33771;48.180;11.400;2023-07-09T02:47:30;9.43;;;6.10;;
48006;SDS011;33771;48.180;11.400;2023-07-09T02:49:56;7.45;;;5.47;;
48006;SDS011;33771;48.180;11.400;2023-07-09T02:52:21;10.38;;;5.45;;
48006;SDS011;33771;48.180;11.400;2023-07-09T02:54:47;15.18;;;6.60;;
48006;SDS011;33771;48.180;11.400;2023-07-09T02:57:13;12.52;;;6.40;;
48006;SDS011;33771;48.180;11.400;2023-07-09T02:59:38;9.77;;;6.70;;
48006;SDS011;33771;48.180;11.400;2023-07-09T03:02:04;14.88;;;6.40;;
48006;SDS011;33771;48.180;11.400;2023-07-09T03:04:30;11.57;;;6.45;;
48006;SDS011;33771;48.180;11.400;2023-07-09T03:06:56;13.10;;;6.18;;
48006;SDS011;33771;48.180;11.400;2023-07-09T03:09:22;12.25;;;6.10;;
48006;SDS011;33771;48.180;11.400;2023-07-09T03:11:48;10.18;;;6.10;;
48006;SDS011;33771;48.180;11.400;2023-07-09T03:14:14;11.07;;;6.35;;
48006;SDS011;33771;48.180;11.400;2023-07-09T03:16:40;10.35;;;6.25;;
48006;SDS011;33771;48.180;11.400;2023-07-09T03:19:06;10.98;;;6.18;;
48006;SDS011;33771;48.180;11.400;2023-07-09T03:21:32;9.70;;;5.80;;
48006;SDS011;33771;48.180;11.400;2023-07-09T03:23:57;19.27;;;6.70;;
48006;SDS011;33771;48.180;11.400;2023-07-09T03:26:23;10.55;;;6.07;;
48006;SDS011;33771;48.180;11.400;2023-07-09T03:28:50;12.82;;;6.20;;
48006;SDS011;33771;48.180;11.400;2023-07-09T03:31:16;10.30;;;6.40;;
48006;SDS011;33771;48.180;11.400;2023-07-09T03:33:41;11.13;;;5.70;;
48006;SDS011;33771;48.180;11.400;2023-07-09T03:36:07;13.25;;;6.43;;
48006;SDS011;33771;48.180;11.400;2023-07-09T03:38:32;8.80;;;5.95;;
48006;SDS011;33771;48.180;11.400;2023-07-09T03:40:58;13.50;;;6.55;;
48006;SDS011;33771;48.180;11.400;2023-07-09T03:43:24;9.68;;;6.13;;
48006;SDS011;33771;48.180;11.400;2023-07-09T03:45:50;10.32;;;5.68;;
48006;SDS011;33771;48.180;11.400;2023-07-09T03:48:16;10.57;;;6.25;;
48006;SDS011;33771;48.180;11.400;2023-07-09T03:50:44;9.00;;;5.45;;
48006;SDS011;33771;48.180;11.400;2023-07-09T03:53:11;13.95;;;6.13;;
48006;SDS011;33771;48.180;11.400;2023-07-09T03:55:38;11.30;;;5.97;;
48006;SDS011;33771;48.180;11.400;2023-07-09T03:58:04;9.65;;;5.60;;
48006;SDS011;33771;48.180;11.400;2023-07-09T04:00:30;9.07;;;6.00;;
48006;SDS011;33771;48.180;11.400;2023-07-09T04:02:56;9.85;;;5.82;;
48006;SDS011;33771;48.180;11.400;2023-07-09T04:05:22;12.20;;;5.50;;
48006;SDS011;33771;48.180;11.400;2023-07-09T04:07:51;11.05;;;5.75;;
48006;SDS011;33771;48.180;11.400;2023-07-09T04:10:17;12.80;;;6.18;;
48006;SDS011;33771;48.180;11.400;2023-07-09T04:12:43;9.65;;;5.95;;
48006;SDS011;33771;48.180;11.400;2023-07-09T04:15:09;11.77;;;5.90;;
48006;SDS011;33771;48.180;11.400;2023-07-09T04:17:35;11.77;;;5.88;;
48006;SDS011;33771;48.180;11.400;2023-07-09T04:20:01;7.57;;;5.75;;
48006;SDS011;33771;48.180;11.400;2023-07-09T04:22:30;9.85;;;5.95;;
48006;SDS011;33771;48.180;11.400;2023-07-09T04:24:56;11.57;;;5.50;;
48006;SDS011;33771;48.180;11.400;2023-07-09T04:27:22;11.73;;;5.78;;
48006;SDS011;33771;48.180;11.400;2023-07-09T04:29:52;12.35;;;6.22;;
48006;SDS011;33771;48.180;11.400;2023-07-09T04:32:18;12.52;;;5.65;;
48006;SDS011;33771;48.180;11.400;2023-07-09T04:34:44;12.00;;;5.90;;
48006;SDS011;33771;48.180;11.400;2023-07-09T04:37:10;10.50;;;5.75;;
48006;SDS011;33771;48.180;11.400;2023-07-09T04:39:36;15.13;;;5.72;;
48006;SDS011;33771;48.180;11.400;2023-07-09T04:42:02;10.05;;;5.85;;
48006;SDS011;33771;48.180;11.400;2023-07-09T04:44:28;9.18;;;5.68;;
48006;SDS011;33771;48.180;11.400;2023-07-09T04:46:54;9.50;;;5.55;;
48006;SDS011;33771;48.180;11.400;2023-07-09T04:49:19;8.63;;;5.30;;
48006;SDS011;33771;48.180;11.400;2023-07-09T04:51:45;13.60;;;6.30;;
48006;SDS011;33771;48.180;11.400;2023-07-09T04:54:11;10.60;;;6.03;;
48006;SDS011;33771;48.180;11.400;2023-07-09T04:56:40;8.68;;;5.38;;
48006;SDS011;33771;48.180;11.400;2023-07-09T04:59:09;10.02;;;5.50;;
48006;SDS011;33771;48.180;11.400;2023-07-09T05:01:35;10.50;;;5.75;;
48006;SDS011;33771;48.180;11.400;2023-07-09T05:04:00;9.48;;;5.43;;
48006;SDS011;33771;48.180;11.400;2023-07-09T05:06:26;11.43;;;5.85;;
48006;SDS011;33771;48.180;11.400;2023-07-09T05:08:52;8.70;;;5.78;;
48006;SDS011;33771;48.180;11.400;2023-07-09T05:11:17;10.38;;;5.68;;
48006;SDS011;33771;48.180;11.400;2023-07-09T05:13:43;11.60;;;6.00;;
48006;SDS011;33771;48.180;11.400;2023-07-09T05:16:08;11.27;;;5.50;;
48006;SDS011;33771;48.180;11.400;2023-07-09T05:18:34;10.52;;;5.50;;
48006;SDS011;33771;48.180;11.400;2023-07-09T05:20:59;10.77;;;5.90;;
48006;SDS011;33771;48.180;11.400;2023-07-09T05:23:25;9.38;;;5.35;;
48006;SDS011;33771;48.180;11.400;2023-07-09T05:25:57;9.13;;;5.18;;
48006;SDS011;33771;48.180;11.400;2023-07-09T05:28:24;7.38;;;5.00;;
48006;SDS011;33771;48.180;11.400;2023-07-09T05:30:49;9.35;;;5.28;;
48006;SDS011;33771;48.180;11.400;2023-07-09T05:33:16;10.27;;;4.78;;
48006;SDS011;33771;48.180;11.400;2023-07-09T05:35:42;8.48;;;5.00;;
48006;SDS011;33771;48.180;11.400;2023-07-09T05:38:07;8.73;;;5.50;;
48006;SDS011;33771;48.180;11.400;2023-07-09T05:40:34;8.70;;;4.72;;
48006;SDS011;33771;48.180;11.400;2023-07-09T05:43:00;6.95;;;4.60;;
48006;SDS011;33771;48.180;11.400;2023-07-09T05:45:25;7.88;;;4.80;;
48006;SDS011;33771;48.180;11.400;2023-07-09T05:47:51;8.77;;;4.60;;
48006;SDS011;33771;48.180;11.400;2023-07-09T05:50:16;11.90;;;4.65;;
48006;SDS011;33771;48.180;11.400;2023-07-09T05:52:42;7.82;;;4.72;;
48006;SDS011;33771;48.180;11.400;2023-07-09T05:55:07;8.65;;;5.72;;
48006;SDS011;33771;48.180;11.400;2023-07-09T05:57:33;9.65;;;4.97;;
48006;SDS011;33771;48.180;11.400;2023-07-09T05:59:59;7.78;;;5.13;;
48006;SDS011;33771;48.180;11.400;2023-07-09T06:02:24;8.73;;;4.57;;
48006;SDS011;33771;48.180;11.400;2023-07-09T06:04:50;11.52;;;5.43;;
48006;SDS011;33771;48.180;11.400;2023-07-09T06:07:16;10.57;;;4.97;;
48006;SDS011;33771;48.180;11.400;2023-07-09T06:09:43;7.38;;;4.78;;
48006;SDS011;33771;48.180;11.400;2023-07-09T06:12:11;12.45;;;4.97;;
48006;SDS011;33771;48.180;11.400;2023-07-09T06:14:36;6.85;;;4.55;;
48006;SDS011;33771;48.180;11.400;2023-07-09T06:17:02;12.52;;;5.38;;
48006;SDS011;33771;48.180;11.400;2023-07-09T06:19:28;9.00;;;4.50;;
48006;SDS011;33771;48.180;11.400;2023-07-09T06:21:53;7.55;;;4.60;;
48006;SDS011;33771;48.180;11.400;2023-07-09T06:24:20;7.18;;;4.50;;
48006;SDS011;33771;48.180;11.400;2023-07-09T06:26:46;7.72;;;4.65;;
48006;SDS011;33771;48.180;11.400;2023-07-09T06:29:12;8.70;;;4.85;;
48006;SDS011;33771;48.180;11.400;2023-07-09T06:31:38;6.68;;;4.25;;
48006;SDS011;33771;48.180;11.400;2023-07-09T06:34:05;9.10;;;4.38;;
48006;SDS011;33771;48.180;11.400;2023-07-09T06:36:32;7.78;;;3.85;;
48006;SDS011;33771;48.180;11.400;2023-07-09T06:38:58;11.55;;;4.45;;
48006;SDS011;33771;48.180;11.400;2023-07-09T06:41:24;7.32;;;4.00;;
48006;SDS011;33771;48.180;11.400;2023-07-09T06:43:49;6.32;;;3.85;;
48006;SDS011;33771;48.180;11.400;2023-07-09T06:46:15;8.30;;;4.15;;
48006;SDS011;33771;48.180;11.400;2023-07-09T06:48:43;6.00;;;4.05;;
48006;SDS011;33771;48.180;11.400;2023-07-09T06:51:09;8.00;;;3.97;;
48006;SDS011;33771;48.180;11.400;2023-07-09T06:53:34;7.28;;;4.43;;
48006;SDS011;33771;48.180;11.400;2023-07-09T06:56:01;10.15;;;4.43;;
48006;SDS011;33771;48.180;11.400;2023-07-09T06:58:27;7.20;;;3.63;;
48006;SDS011;33771;48.180;11.400;2023-07-09T07:00:56;9.60;;;4.20;;
48006;SDS011;33771;48.180;11.400;2023-07-09T07:03:22;7.15;;;4.03;;
48006;SDS011;33771;48.180;11.400;2023-07-09T07:05:48;7.72;;;4.15;;
48006;SDS011;33771;48.180;11.400;2023-07-09T07:08:16;9.43;;;4.30;;
48006;SDS011;33771;48.180;11.400;2023-07-09T07:10:43;5.47;;;3.90;;
48006;SDS011;33771;48.180;11.400;2023-07-09T07:13:09;7.88;;;4.00;;
48006;SDS011;33771;48.180;11.400;2023-07-09T07:15:37;9.20;;;4.97;;
48006;SDS011;33771;48.180;11.400;2023-07-09T07:18:03;8.68;;;4.28;;
48006;SDS011;33771;48.180;11.400;2023-07-09T07:20:29;9.75;;;4.40;;
48006;SDS011;33771;48.180;11.400;2023-07-09T07:22:55;6.93;;;3.88;;
48006;SDS011;33771;48.180;11.400;2023-07-09T07:25:23;8.75;;;4.03;;
48006;SDS011;33771;48.180;11.400;2023-07-09T07:27:49;6.35;;;3.58;;
48006;SDS011;33771;48.180;11.400;2023-07-09T07:30:15;9.35;;;4.72;;
48006;SDS011;33771;48.180;11.400;2023-07-09T07:32:45;8.02;;;3.30;;
48006;SDS011;33771;48.180;11.400;2023-07-09T07:35:12;7.38;;;3.22;;
48006;SDS011;33771;48.180;11.400;2023-07-09T07:37:38;5.88;;;3.58;;
48006;SDS011;33771;48.180;11.400;2023-07-09T07:40:05;8.88;;;4.07;;
48006;SDS011;33771;48.180;11.400;2023-07-09T07:42:31;9.95;;;3.65;;
48006;SDS011;33771;48.180;11.400;2023-07-09T07:44:57;8.75;;;4.50;;
48006;SDS011;33771;48.180;11.400;2023-07-09T07:47:23;9.70;;;3.80;;
48006;SDS011;33771;48.180;11.400;2023-07-09T07:49:48;8.13;;;4.18;;
48006;SDS011;33771;48.180;11.400;2023-07-09T07:52:14;6.13;;;3.45;;
48006;SDS011;33771;48.180;11.400;2023-07-09T07:54:39;6.45;;;3.15;;
48006;SDS011;33771;48.180;11.400;2023-07-09T07:57:05;6.85;;;3.45;;
48006;SDS011;33771;48.180;11.400;2023-07-09T07:59:31;7.60;;;3.40;;
48006;SDS011;33771;48.180;11.400;2023-07-09T08:01:59;6.15;;;3.30;;
48006;SDS011;33771;48.180;11.400;2023-07-09T08:04:25;5.97;;;3.10;;
48006;SDS011;33771;48.180;11.400;2023-07-09T08:06:51;6.63;;;3.50;;
48006;SDS011;33771;48.180;11.400;2023-07-09T08:09:17;7.60;;;3.67;;
48006;SDS011;33771;48.180;11.400;2023-07-09T08:11:42;8.00;;;3.15;;
48006;SDS011;33771;48.180;11.400;2023-07-09T08:14:09;6.30;;;3.55;;
48006;SDS011;33771;48.180;11.400;2023-07-09T08:16:35;8.63;;;3.90;;
48006;SDS011;33771;48.180;11.400;2023-07-09T08:19:01;7.60;;;3.97;;
48006;SDS011;33771;48.180;11.400;2023-07-09T08:21:26;7.03;;;3.53;;
48006;SDS011;33771;48.180;11.400;2023-07-09T08:23:52;8.68;;;3.55;;
48006;SDS011;33771;48.180;11.400;2023-07-09T08:26:17;8.05;;;3.53;;
48006;SDS011;33771;48.180;11.400;2023-07-09T08:28:43;8.23;;;3.80;;
48006;SDS011;33771;48.180;11.400;2023-07-09T08:31:08;7.13;;;3.50;;
48006;SDS011;33771;48.180;11.400;2023-07-09T08:33:34;7.82;;;4.20;;
48006;SDS011;33771;48.180;11.400;2023-07-09T08:36:00;6.65;;;3.90;;
48006;SDS011;33771;48.180;11.400;2023-07-09T08:38:25;10.65;;;3.92;;
48006;SDS011;33771;48.180;11.400;2023-07-09T08:41:55;8.30;;;3.33;;
48006;SDS011;33771;48.180;11.400;2023-07-09T08:49:36;5.35;;;3.58;;
48006;SDS011;33771;48.180;11.400;2023-07-09T08:55:11;6.55;;;4.03;;
48006;SDS011;33771;48.180;11.400;2023-07-09T08:57:44;5.82;;;3.90;;
48006;SDS011;33771;48.180;11.400;2023-07-09T09:00:22;6.18;;;3.83;;
48006;SDS011;33771;48.180;11.400;2023-07-09T09:03:05;10.57;;;3.92;;
48006;SDS011;33771;48.180;11.400;2023-07-09T09:05:41;6.10;;;3.75;;
48006;SDS011;33771;48.180;11.400;2023-07-09T09:10:47;7.28;;;3.80;;
48006;SDS011;33771;48.180;11.400;2023-07-09T09:13:17;7.57;;;4.53;;
48006;SDS011;33771;48.180;11.400;2023-07-09T09:15:48;7.45;;;3.92;;
48006;SDS011;33771;48.180;11.400;2023-07-09T09:20:46;8.50;;;3.90;;
48006;SDS011;33771;48.180;11.400;2023-07-09T09:23:13;8.88;;;4.03;;
48006;SDS011;33771;48.180;11.400;2023-07-09T09:25:45;6.95;;;4.10;;
48006;SDS011;33771;48.180;11.400;2023-07-09T09:28:16;6.82;;;3.88;;
48006;SDS011;33771;48.180;11.400;2023-07-09T09:30:42;6.22;;;3.65;;
48006;SDS011;33771;48.180;11.400;2023-07-09T09:33:08;7.13;;;4.07;;
48006;SDS011;33771;48.180;11.400;2023-07-09T09:35:36;7.15;;;3.70;;
48006;SDS011;33771;48.180;11.400;2023-07-09T09:38:09;15.05;;;4.68;;
48006;SDS011;33771;48.180;11.400;2023-07-09T09:40:37;8.20;;;3.90;;
48006;SDS011;33771;48.180;11.400;2023-07-09T09:43:03;9.10;;;3.58;;
48006;SDS011;33771;48.180;11.400;2023-07-09T09:45:45;8.50;;;4.20;;
48006;SDS011;33771;48.180;11.400;2023-07-09T09:48:31;6.15;;;3.88;;
48006;SDS011;33771;48.180;11.400;2023-07-09T09:50:57;7.15;;;3.97;;
48006;SDS011;33771;48.180;11.400;2023-07-09T09:53:26;6.10;;;4.22;;
48006;SDS011;33771;48.180;11.400;2023-07-09T09:55:54;8.23;;;4.18;;
48006;SDS011;33771;48.180;11.400;2023-07-09T09:58:24;7.10;;;3.75;;
48006;SDS011;33771;48.180;11.400;2023-07-09T10:00:54;5.55;;;3.95;;
48006;SDS011;33771;48.180;11.400;2023-07-09T10:03:31;8.95;;;4.15;;
48006;SDS011;33771;48.180;11.400;2023-07-09T10:13:58;5.65;;;3.75;;
48006;SDS011;33771;48.180;11.400;2023-07-09T10:16:44;4.60;;;3.38;;
48006;SDS011;33771;48.180;11.400;2023-07-09T10:19:30;7.65;;;4.22;;
48006;SDS011;33771;48.180;11.400;2023-07-09T10:22:23;6.90;;;3.75;;
48006;SDS011;33771;48.180;11.400;2023-07-09T10:31:03;10.00;;;3.80;;
48006;SDS011;33771;48.180;11.400;2023-07-09T10:39:24;8.23;;;3.92;;
48006;SDS011;33771;48.180;11.400;2023-07-09T10:41:55;8.98;;;3.53;;
48006;SDS011;33771;48.180;11.400;2023-07-09T10:44:39;7.07;;;3.78;;
48006;SDS011;33771;48.180;11.400;2023-07-09T10:47:13;6.07;;;3.58;;
48006;SDS011;33771;48.180;11.400;2023-07-09T10:49:53;6.95;;;3.63;;
48006;SDS011;33771;48.180;11.400;2023-07-09T10:52:23;6.75;;;3.72;;
48006;SDS011;33771;48.180;11.400;2023-07-09T10:57:58;7.55;;;4.10;;
48006;SDS011;33771;48.180;11.400;2023-07-09T11:00:37;6.38;;;3.75;;
48006;SDS011;33771;48.180;11.400;2023-07-09T11:03:14;8.48;;;4.05;;
48006;SDS011;33771;48.180;11.400;2023-07-09T11:05:43;8.45;;;3.80;;
48006;SDS011;33771;48.180;11.400;2023-07-09T11:08:14;11.25;;;3.95;;
48006;SDS011;33771;48.180;11.400;2023-07-09T11:10:49;16.55;;;4.65;;
48006;SDS011;33771;48.180;11.400;2023-07-09T11:13:35;5.43;;;3.58;;
48006;SDS011;33771;48.180;11.400;2023-07-09T11:16:08;9.30;;;4.20;;
48006;SDS011;33771;48.180;11.400;2023-07-09T11:18:40;6.15;;;3.53;;
48006;SDS011;33771;48.180;11.400;2023-07-09T11:21:07;8.57;;;4.10;;
48006;SDS011;33771;48.180;11.400;2023-07-09T11:23:50;7.82;;;3.97;;
48006;SDS011;33771;48.180;11.400;2023-07-09T11:26:22;5.57;;;3.70;;
48006;SDS011;33771;48.180;11.400;2023-07-09T11:28:55;5.93;;;3.33;;
48006;SDS011;33771;48.180;11.400;2023-07-09T11:36:47;5.82;;;3.72;;
48006;SDS011;33771;48.180;11.400;2023-07-09T11:39:30;7.30;;;3.92;;
48006;SDS011;33771;48.180;11.400;2023-07-09T11:42:32;8.37;;;4.50;;
48006;SDS011;33771;48.180;11.400;2023-07-09T11:45:09;8.93;;;3.70;;
48006;SDS011;33771;48.180;11.400;2023-07-09T11:47:38;7.38;;;3.55;;
48006;SDS011;33771;48.180;11.400;2023-07-09T11:58:14;6.55;;;3.88;;
48006;SDS011;33771;48.180;11.400;2023-07-09T12:00:46;6.88;;;3.45;;
48006;SDS011;33771;48.180;11.400;2023-07-09T12:05:51;10.75;;;3.65;;
48006;SDS011;33771;48.180;11.400;2023-07-09T12:08:28;6.53;;;3.60;;
48006;SDS011;33771;48.180;11.400;2023-07-09T12:11:00;7.57;;;4.18;;
48006;SDS011;33771;48.180;11.400;2023-07-09T12:13:26;4.78;;;3.13;;
48006;SDS011;33771;48.180;11.400;2023-07-09T12:15:52;6.88;;;3.90;;
48006;SDS011;33771;48.180;11.400;2023-07-09T12:18:17;6.93;;;3.67;;
48006;SDS011;33771;48.180;11.400;2023-07-09T12:20:49;5.88;;;3.50;;
48006;SDS011;33771;48.180;11.400;2023-07-09T12:25:54;6.85;;;3.78;;
48006;SDS011;33771;48.180;11.400;2023-07-09T12:28:22;8.85;;;3.88;;
48006;SDS011;33771;48.180;11.400;2023-07-09T12:30:49;8.15;;;3.80;;
48006;SDS011;33771;48.180;11.400;2023-07-09T12:33:16;9.52;;;3.70;;
48006;SDS011;33771;48.180;11.400;2023-07-09T12:35:43;7.55;;;4.03;;
48006;SDS011;33771;48.180;11.400;2023-07-09T12:38:15;7.35;;;3.50;;
48006;SDS011;33771;48.180;11.400;2023-07-09T12:40:46;8.02;;;3.78;;
48006;SDS011;33771;48.180;11.400;2023-07-09T12:43:17;6.95;;;3.72;;
48006;SDS011;33771;48.180;11.400;2023-07-09T12:45:50;9.38;;;3.85;;
48006;SDS011;33771;48.180;11.400;2023-07-09T12:48:17;6.60;;;3.78;;
48006;SDS011;33771;48.180;11.400;2023-07-09T12:50:50;8.55;;;3.85;;
48006;SDS011;33771;48.180;11.400;2023-07-09T12:53:18;6.13;;;3.92;;
48006;SDS011;33771;48.180;11.400;2023-07-09T12:55:46;7.97;;;3.40;;
48006;SDS011;33771;48.180;11.400;2023-07-09T12:58:28;6.65;;;3.70;;
48006;SDS011;33771;48.180;11.400;2023-07-09T13:00:56;7.43;;;3.78;;
48006;SDS011;33771;48.180;11.400;2023-07-09T13:03:30;6.28;;;3.70;;
48006;SDS011;33771;48.180;11.400;2023-07-09T13:08:24;7.00;;;3.70;;
48006;SDS011;33771;48.180;11.400;2023-07-09T13:10:53;6.80;;;4.00;;
48006;SDS011;33771;48.180;11.400;2023-07-09T13:13:20;5.72;;;3.20;;
48006;SDS011;33771;48.180;11.400;2023-07-09T13:15:49;6.93;;;3.58;;
48006;SDS011;33771;48.180;11.400;2023-07-09T13:18:21;6.53;;;3.92;;
48006;SDS011;33771;48.180;11.400;2023-07-09T13:20:48;5.13;;;2.80;;
48006;SDS011;33771;48.180;11.400;2023-07-09T13:23:14;5.40;;;3.40;;
48006;SDS011;33771;48.180;11.400;2023-07-09T13:25:40;10.07;;;3.83;;
48006;SDS011;33771;48.180;11.400;2023-07-09T13:28:12;7.30;;;4.00;;
48006;SDS011;33771;48.180;11.400;2023-07-09T13:30:39;7.47;;;3.70;;
48006;SDS011;33771;48.180;11.400;2023-07-09T13:33:07;7.22;;;3.42;;
48006;SDS011;33771;48.180;11.400;2023-07-09T13:35:35;7.53;;;3.70;;
48006;SDS011;33771;48.180;11.400;2023-07-09T13:38:00;7.57;;;3.53;;
48006;SDS011;33771;48.180;11.400;2023-07-09T13:40:26;7.30;;;3.53;;
48006;SDS011;33771;48.180;11.400;2023-07-09T13:42:52;5.75;;;3.53;;
48006;SDS011;33771;48.180;11.400;2023-07-09T13:45:21;9.40;;;3.97;;
48006;SDS011;33771;48.180;11.400;2023-07-09T13:47:50;7.07;;;3.63;;
48006;SDS011;33771;48.180;11.400;2023-07-09T13:50:20;7.25;;;3.47;;
48006;SDS011;33771;48.180;11.400;2023-07-09T13:52:46;7.75;;;3.60;;
48006;SDS011;33771;48.180;11.400;2023-07-09T13:55:15;7.93;;;3.63;;
48006;SDS011;33771;48.180;11.400;2023-07-09T13:57:44;9.10;;;3.88;;
48006;SDS011;33771;48.180;11.400;2023-07-09T14:00:10;7.38;;;3.30;;
48006;SDS011;33771;48.180;11.400;2023-07-09T14:02:36;5.32;;;3.72;;
48006;SDS011;33771;48.180;11.400;2023-07-09T14:05:03;7.25;;;3.58;;
48006;SDS011;33771;48.180;11.400;2023-07-09T14:07:33;8.20;;;4.07;;
48006;SDS011;33771;48.180;11.400;2023-07-09T14:10:00;6.35;;;3.53;;
48006;SDS011;33771;48.180;11.400;2023-07-09T14:12:29;6.85;;;3.63;;
48006;SDS011;33771;48.180;11.400;2023-07-09T14:14:58;6.93;;;3.70;;
48006;SDS011;33771;48.180;11.400;2023-07-09T14:17:25;8.45;;;3.75;;
48006;SDS011;33771;48.180;11.400;2023-07-09T14:19:52;7.30;;;3.90;;
48006;SDS011;33771;48.180;11.400;2023-07-09T14:22:23;7.22;;;4.05;;
48006;SDS011;33771;48.180;11.400;2023-07-09T14:24:54;8.35;;;3.65;;
48006;SDS011;33771;48.180;11.400;2023-07-09T14:27:20;10.10;;;4.25;;
48006;SDS011;33771;48.180;11.400;2023-07-09T14:29:45;10.27;;;4.07;;
48006;SDS011;33771;48.180;11.400;2023-07-09T14:32:30;7.28;;;3.88;;
48006;SDS011;33771;48.180;11.400;2023-07-09T14:35:02;5.10;;;3.42;;
48006;SDS011;33771;48.180;11.400;2023-07-09T14:37:38;10.38;;;3.70;;
48006;SDS011;33771;48.180;11.400;2023-07-09T14:40:04;6.60;;;3.72;;
48006;SDS011;33771;48.180;11.400;2023-07-09T14:42:30;8.27;;;4.05;;
48006;SDS011;33771;48.180;11.400;2023-07-09T14:44:56;6.25;;;3.60;;
48006;SDS011;33771;48.180;11.400;2023-07-09T14:47:22;9.23;;;4.50;;
48006;SDS011;33771;48.180;11.400;2023-07-09T14:49:48;5.57;;;3.80;;
48006;SDS011;33771;48.180;11.400;2023-07-09T14:52:16;8.13;;;3.65;;
48006;SDS011;33771;48.180;11.400;2023-07-09T14:54:45;6.85;;;3.90;;
48006;SDS011;33771;48.180;11.400;2023-07-09T14:57:20;8.73;;;3.45;;
48006;SDS011;33771;48.180;11.400;2023-07-09T14:59:47;6.93;;;3.70;;
48006;SDS011;33771;48.180;11.400;2023-07-09T15:05:23;9.25;;;3.90;;
48006;SDS011;33771;48.180;11.400;2023-07-09T15:07:49;7.18;;;3.80;;
48006;SDS011;33771;48.180;11.400;2023-07-09T15:10:16;7.28;;;3.55;;
48006;SDS011;33771;48.180;11.400;2023-07-09T15:12:44;11.30;;;3.85;;
48006;SDS011;33771;48.180;11.400;2023-07-09T15:17:39;6.90;;;3.90;;
48006;SDS011;33771;48.180;11.400;2023-07-09T15:20:05;8.05;;;3.67;;
48006;SDS011;33771;48.180;11.400;2023-07-09T15:22:37;6.88;;;3.10;;
48006;SDS011;33771;48.180;11.400;2023-07-09T15:25:02;10.85;;;4.05;;
48006;SDS011;33771;48.180;11.400;2023-07-09T15:27:28;7.72;;;3.65;;
48006;SDS011;33771;48.180;11.400;2023-07-09T15:29:54;6.30;;;3.47;;
48006;SDS011;33771;48.180;11.400;2023-07-09T15:32:19;4.38;;;3.38;;
48006;SDS011;33771;48.180;11.400;2023-07-09T15:34:45;5.75;;;3.28;;
48006;SDS011;33771;48.180;11.400;2023-07-09T15:37:12;7.57;;;3.50;;
48006;SDS011;33771;48.180;11.400;2023-07-09T15:39:40;6.28;;;3.25;;
48006;SDS011;33771;48.180;11.400;2023-07-09T15:42:09;7.57;;;3.55;;
48006;SDS011;33771;48.180;11.400;2023-07-09T15:44:35;5.25;;;3.65;;